sensor_id;sensor_type;location;lat;lon;timestamp;pressure;altitude;pressure_sealevel;temperature;humidity
47166;BME280;32930;51.112;13.762;2023-03-16T00:33:45;99886.41;;;2.37;78.71
47166;BME280;32930;51.112;13.762;2023-03-16T00:36:11;99886.13;;;2.30;78.14
47166;BME280;32930;51.112;13.762;2023-03-16T01:25:21;99929.91;;;2.10;78.76
47166;BME280;32930;51.112;13.762;2023-03-16T01:27:48;99931.72;;;2.13;78.90
47166;BME280;32930;51.112;13.762;2023-03-16T01:30:14;99929.38;;;2.17;78.14
47166;BME280;32930;51.112;13.762;2023-03-16T01:32:39;99935.28;;;1.98;78.23
47166;BME280;32930;51.112;13.762;2023-03-16T01:35:06;99936.22;;;2.00;78.42
47166;BME280;32930;51.112;13.762;2023-03-16T01:37:32;99942.00;;;2.16;77.85
47166;BME280;32930;51.112;13.762;2023-03-16T01:39:57;99944.06;;;2.05;78.20
47166;BME280;32930;51.112;13.762;2023-03-16T01:42:23;99942.56;;;2.10;77.71
47166;BME280;32930;51.112;13.762;2023-03-16T01:44:59;99944.28;;;2.11;78.41
47166;BME280;32930;51.112;13.762;2023-03-16T01:47:26;99940.28;;;1.97;78.07
47166;BME280;32930;51.112;13.762;2023-03-16T01:49:55;99933.41;;;1.94;77.93
47166;BME280;32930;51.112;13.762;2023-03-16T01:52:28;99935.91;;;1.93;78.59
47166;BME280;32930;51.112;13.762;2023-03-16T01:55:02;99936.47;;;2.05;78.95
47166;BME280;32930;51.112;13.762;2023-03-16T01:57:37;99932.13;;;2.02;78.28
47166;BME280;32930;51.112;13.762;2023-03-16T02:00:16;99935.38;;;2.00;78.95
47166;BME280;32930;51.112;13.762;2023-03-16T02:02:53;99933.66;;;1.81;77.66
47166;BME280;32930;51.112;13.762;2023-03-16T02:07:56;99937.34;;;1.88;78.65
47166;BME280;32930;51.112;13.762;2023-03-16T02:10:25;99933.22;;;1.90;78.92
47166;BME280;32930;51.112;13.762;2023-03-16T02:12:53;99934.78;;;2.05;77.88
47166;BME280;32930;51.112;13.762;2023-03-16T02:15:18;99934.16;;;1.92;77.88
47166;BME280;32930;51.112;13.762;2023-03-16T02:17:46;99933.13;;;1.88;77.89
47166;BME280;32930;51.112;13.762;2023-03-16T02:21:00;99924.97;;;1.76;78.15
47166;BME280;32930;51.112;13.762;2023-03-16T02:23:09;99928.81;;;1.85;77.95
47166;BME280;32930;51.112;13.762;2023-03-16T02:29:02;99940.69;;;1.87;78.33
47166;BME280;32930;51.112;13.762;2023-03-16T02:31:31;99936.38;;;1.85;78.36
47166;BME280;32930;51.112;13.762;2023-03-16T02:33:58;99930.41;;;1.83;77.87
47166;BME280;32930;51.112;13.762;2023-03-16T02:36:25;99940.59;;;1.85;78.20
47166;BME280;32930;51.112;13.762;2023-03-16T02:38:51;99936.91;;;1.78;78.67
47166;BME280;32930;51.112;13.762;2023-03-16T02:41:19;99930.03;;;1.76;78.54
47166;BME280;32930;51.112;13.762;2023-03-16T02:43:53;99926.50;;;1.72;78.36
47166;BME280;32930;51.112;13.762;2023-03-16T02:46:24;99934.03;;;1.71;78.37
47166;BME280;32930;51.112;13.762;2023-03-16T02:52:12;99936.72;;;1.74;78.51
47166;BME280;32930;51.112;13.762;2023-03-16T02:54:38;99940.72;;;1.70;77.53
47166;BME280;32930;51.112;13.762;2023-03-16T02:57:03;99946.97;;;1.77;77.95
47166;BME280;32930;51.112;13.762;2023-03-16T02:59:29;99941.34;;;1.65;78.44
47166;BME280;32930;51.112;13.762;2023-03-16T03:01:55;99941.63;;;1.71;78.40
47166;BME280;32930;51.112;13.762;2023-03-16T03:04:21;99943.16;;;1.67;78.75
47166;BME280;32930;51.112;13.762;2023-03-16T03:06:49;99940.81;;;1.54;78.12
47166;BME280;32930;51.112;13.762;2023-03-16T03:09:16;99939.00;;;1.69;78.20
47166;BME280;32930;51.112;13.762;2023-03-16T03:11:43;99935.47;;;1.66;77.78
47166;BME280;32930;51.112;13.762;2023-03-16T03:14:10;99946.53;;;1.68;78.38
47166;BME280;32930;51.112;13.762;2023-03-16T03:16:35;99940.47;;;1.64;78.74
47166;BME280;32930;51.112;13.762;2023-03-16T03:19:01;99937.00;;;1.62;78.66
47166;BME280;32930;51.112;13.762;2023-03-16T03:21:27;99937.56;;;1.56;78.33
47166;BME280;32930;51.112;13.762;2023-03-16T03:23:53;99944.63;;;1.63;78.94
47166;BME280;32930;51.112;13.762;2023-03-16T03:26:19;99940.19;;;1.58;78.87
47166;BME280;32930;51.112;13.762;2023-03-16T03:28:45;99942.06;;;1.62;79.12
47166;BME280;32930;51.112;13.762;2023-03-16T03:31:16;99954.56;;;1.77;79.71
47166;BME280;32930;51.112;13.762;2023-03-16T03:33:43;99948.69;;;1.78;79.42
47166;BME280;32930;51.112;13.762;2023-03-16T03:36:10;99948.41;;;1.72;79.96
47166;BME280;32930;51.112;13.762;2023-03-16T03:38:36;99952.03;;;1.77;80.25
47166;BME280;32930;51.112;13.762;2023-03-16T03:41:02;99957.06;;;1.95;80.88
47166;BME280;32930;51.112;13.762;2023-03-16T03:43:28;99956.34;;;1.97;80.74
47166;BME280;32930;51.112;13.762;2023-03-16T03:45:55;99954.50;;;2.13;79.64
47166;BME280;32930;51.112;13.762;2023-03-16T03:48:22;99960.81;;;2.03;79.98
47166;BME280;32930;51.112;13.762;2023-03-16T03:50:48;99963.84;;;2.33;79.25
47166;BME280;32930;51.112;13.762;2023-03-16T03:53:13;99966.94;;;2.08;78.63
47166;BME280;32930;51.112;13.762;2023-03-16T05:39:05;99981.19;;;1.52;79.63
47166;BME280;32930;51.112;13.762;2023-03-16T05:41:32;99988.56;;;1.66;80.00
47166;BME280;32930;51.112;13.762;2023-03-16T05:43:58;99985.25;;;1.49;79.59
47166;BME280;32930;51.112;13.762;2023-03-16T05:46:23;99991.19;;;1.67;79.64
47166;BME280;32930;51.112;13.762;2023-03-16T05:48:49;99979.75;;;1.75;79.99
47166;BME280;32930;51.112;13.762;2023-03-16T05:51:14;99989.72;;;1.72;79.59
47166;BME280;32930;51.112;13.762;2023-03-16T05:53:41;99997.56;;;1.77;79.77
47166;BME280;32930;51.112;13.762;2023-03-16T05:56:09;100000.66;;;1.71;79.77
47166;BME280;32930;51.112;13.762;2023-03-16T05:58:37;100001.09;;;1.80;78.85
47166;BME280;32930;51.112;13.762;2023-03-16T06:01:03;100001.16;;;1.82;79.68
47166;BME280;32930;51.112;13.762;2023-03-16T06:03:30;99996.38;;;1.88;79.47
47166;BME280;32930;51.112;13.762;2023-03-16T06:05:55;99996.31;;;1.87;79.16
47166;BME280;32930;51.112;13.762;2023-03-16T06:08:21;99996.53;;;1.91;79.27
47166;BME280;32930;51.112;13.762;2023-03-16T06:10:46;99993.13;;;1.91;79.54
47166;BME280;32930;51.112;13.762;2023-03-16T06:13:12;100004.63;;;1.84;79.61
47166;BME280;32930;51.112;13.762;2023-03-16T06:15:38;99998.91;;;1.88;79.86
47166;BME280;32930;51.112;13.762;2023-03-16T06:18:04;99994.84;;;1.92;79.82
47166;BME280;32930;51.112;13.762;2023-03-16T06:20:30;99999.25;;;2.14;79.24
47166;BME280;32930;51.112;13.762;2023-03-16T06:22:55;100003.31;;;2.67;78.52
47166;BME280;32930;51.112;13.762;2023-03-16T06:25:21;100000.50;;;3.19;86.29
47166;BME280;32930;51.112;13.762;2023-03-16T06:27:46;100010.78;;;2.83;78.64
47166;BME280;32930;51.112;13.762;2023-03-16T06:32:49;100012.47;;;3.42;76.24
47166;BME280;32930;51.112;13.762;2023-03-16T06:35:14;100009.47;;;3.53;74.99
47166;BME280;32930;51.112;13.762;2023-03-16T06:37:40;100004.28;;;3.29;74.67
47166;BME280;32930;51.112;13.762;2023-03-16T06:40:07;100007.44;;;3.23;76.50
47166;BME280;32930;51.112;13.762;2023-03-16T06:42:32;100001.31;;;3.81;75.87
47166;BME280;32930;51.112;13.762;2023-03-16T06:44:58;99995.38;;;4.70;69.34
47166;BME280;32930;51.112;13.762;2023-03-16T06:47:24;100007.09;;;4.91;67.50
47166;BME280;32930;51.112;13.762;2023-03-16T06:49:50;100001.63;;;5.04;68.85
47166;BME280;32930;51.112;13.762;2023-03-16T06:52:16;100005.31;;;4.64;68.91
47166;BME280;32930;51.112;13.762;2023-03-16T06:54:41;100006.88;;;4.84;67.85
47166;BME280;32930;51.112;13.762;2023-03-16T06:57:07;100011.13;;;5.08;67.12
47166;BME280;32930;51.112;13.762;2023-03-16T06:59:33;100006.75;;;5.82;65.52
47166;BME280;32930;51.112;13.762;2023-03-16T07:01:59;100007.13;;;5.40;65.70
47166;BME280;32930;51.112;13.762;2023-03-16T07:04:26;100000.31;;;5.39;67.69
47166;BME280;32930;51.112;13.762;2023-03-16T07:06:51;100010.19;;;5.30;66.40
47166;BME280;32930;51.112;13.762;2023-03-16T07:09:17;100018.34;;;5.21;66.90
47166;BME280;32930;51.112;13.762;2023-03-16T07:11:42;100013.41;;;5.51;65.89
47166;BME280;32930;51.112;13.762;2023-03-16T07:14:09;100018.38;;;5.23;68.46
47166;BME280;32930;51.112;13.762;2023-03-16T07:16:34;100008.19;;;5.21;67.44
47166;BME280;32930;51.112;13.762;2023-03-16T07:19:00;100019.28;;;5.23;66.51
47166;BME280;32930;51.112;13.762;2023-03-16T07:21:25;100012.84;;;5.34;66.84
47166;BME280;32930;51.112;13.762;2023-03-16T07:23:51;100021.22;;;5.56;66.64
47166;BME280;32930;51.112;13.762;2023-03-16T07:26:17;100016.88;;;5.53;65.36
47166;BME280;32930;51.112;13.762;2023-03-16T07:28:42;100017.59;;;5.76;64.84
47166;BME280;32930;51.112;13.762;2023-03-16T07:31:09;100027.28;;;5.35;67.57
47166;BME280;32930;51.112;13.762;2023-03-16T07:33:35;100032.16;;;5.53;68.15
47166;BME280;32930;51.112;13.762;2023-03-16T07:36:01;100024.44;;;6.03;65.76
47166;BME280;32930;51.112;13.762;2023-03-16T07:38:30;100024.34;;;6.00;64.86
47166;BME280;32930;51.112;13.762;2023-03-16T07:40:58;100023.47;;;5.99;66.77
47166;BME280;32930;51.112;13.762;2023-03-16T07:43:23;100018.94;;;6.18;64.30
47166;BME280;32930;51.112;13.762;2023-03-16T07:45:50;100017.88;;;6.40;63.37
47166;BME280;32930;51.112;13.762;2023-03-16T07:48:17;100010.53;;;6.20;63.80
47166;BME280;32930;51.112;13.762;2023-03-16T07:50:43;100017.31;;;6.20;63.08
47166;BME280;32930;51.112;13.762;2023-03-16T07:53:10;100026.34;;;6.37;63.02
47166;BME280;32930;51.112;13.762;2023-03-16T07:55:36;100020.97;;;6.58;62.50
47166;BME280;32930;51.112;13.762;2023-03-16T07:58:03;100018.22;;;6.50;62.95
47166;BME280;32930;51.112;13.762;2023-03-16T08:00:31;100015.09;;;6.31;63.19
47166;BME280;32930;51.112;13.762;2023-03-16T08:02:56;100019.72;;;6.15;63.10
47166;BME280;32930;51.112;13.762;2023-03-16T08:05:22;100025.13;;;6.55;63.54
47166;BME280;32930;51.112;13.762;2023-03-16T09:00:37;100038.84;;;8.64;51.57
47166;BME280;32930;51.112;13.762;2023-03-16T09:03:04;100039.25;;;8.82;50.85
47166;BME280;32930;51.112;13.762;2023-03-16T09:05:30;100040.41;;;8.98;50.51
47166;BME280;32930;51.112;13.762;2023-03-16T09:07:57;100030.75;;;9.27;52.40
47166;BME280;32930;51.112;13.762;2023-03-16T09:10:23;100029.44;;;9.49;50.20
47166;BME280;32930;51.112;13.762;2023-03-16T09:12:50;100033.59;;;9.44;48.33
47166;BME280;32930;51.112;13.762;2023-03-16T09:15:18;100032.94;;;9.56;48.00
47166;BME280;32930;51.112;13.762;2023-03-16T09:17:46;100034.63;;;9.54;51.23
47166;BME280;32930;51.112;13.762;2023-03-16T09:46:25;100035.34;;;9.98;46.72
47166;BME280;32930;51.112;13.762;2023-03-16T09:48:54;100029.63;;;10.16;47.64
47166;BME280;32930;51.112;13.762;2023-03-16T09:56:54;100023.91;;;10.32;47.80
47166;BME280;32930;51.112;13.762;2023-03-16T09:59:21;100026.63;;;10.44;44.92
47166;BME280;32930;51.112;13.762;2023-03-16T10:02:26;100029.38;;;10.57;44.97
47166;BME280;32930;51.112;13.762;2023-03-16T10:05:08;100030.28;;;10.62;46.94
47166;BME280;32930;51.112;13.762;2023-03-16T10:29:22;100031.69;;;10.40;44.25
47166;BME280;32930;51.112;13.762;2023-03-16T10:31:48;100028.59;;;10.03;46.37
47166;BME280;32930;51.112;13.762;2023-03-16T10:34:13;100028.56;;;10.61;46.73
47166;BME280;32930;51.112;13.762;2023-03-16T10:36:43;100028.47;;;10.55;46.50
47166;BME280;32930;51.112;13.762;2023-03-16T11:31:59;99978.44;;;10.90;39.71
47166;BME280;32930;51.112;13.762;2023-03-16T11:34:29;99978.25;;;10.72;38.52
47166;BME280;32930;51.112;13.762;2023-03-16T11:37:17;99959.97;;;11.28;39.58
47166;BME280;32930;51.112;13.762;2023-03-16T11:39:58;99972.03;;;11.35;40.54
47166;BME280;32930;51.112;13.762;2023-03-16T11:45:19;99961.69;;;11.26;38.51
47166;BME280;32930;51.112;13.762;2023-03-16T11:53:55;99962.16;;;10.90;38.73
47166;BME280;32930;51.112;13.762;2023-03-16T12:07:47;99936.19;;;11.52;40.31
47166;BME280;32930;51.112;13.762;2023-03-16T12:15:58;99930.50;;;10.89;37.09
47166;BME280;32930;51.112;13.762;2023-03-16T12:18:46;99930.44;;;10.82;39.58
47166;BME280;32930;51.112;13.762;2023-03-16T12:21:21;99921.50;;;11.33;37.51
47166;BME280;32930;51.112;13.762;2023-03-16T12:23:56;99925.66;;;11.17;39.23
47166;BME280;32930;51.112;13.762;2023-03-16T12:26:27;99914.53;;;11.21;39.21
47166;BME280;32930;51.112;13.762;2023-03-16T12:28:58;99925.69;;;11.25;38.40
47166;BME280;32930;51.112;13.762;2023-03-16T12:31:48;99921.94;;;10.87;37.65
47166;BME280;32930;51.112;13.762;2023-03-16T12:34:35;99921.06;;;10.85;37.67
47166;BME280;32930;51.112;13.762;2023-03-16T12:37:08;99918.63;;;10.99;38.40
47166;BME280;32930;51.112;13.762;2023-03-16T12:39:45;99902.47;;;11.11;38.01
47166;BME280;32930;51.112;13.762;2023-03-16T12:50:31;99899.56;;;10.73;38.36
47166;BME280;32930;51.112;13.762;2023-03-16T12:52:57;99908.69;;;10.48;38.49
47166;BME280;32930;51.112;13.762;2023-03-16T13:30:22;99871.19;;;9.87;38.08
47166;BME280;32930;51.112;13.762;2023-03-16T13:32:53;99874.53;;;9.82;36.72
47166;BME280;32930;51.112;13.762;2023-03-16T13:35:29;99866.75;;;9.77;36.85
47166;BME280;32930;51.112;13.762;2023-03-16T13:38:02;99866.06;;;9.89;38.34
47166;BME280;32930;51.112;13.762;2023-03-16T13:40:30;99872.94;;;9.90;37.05
47166;BME280;32930;51.112;13.762;2023-03-16T13:42:57;99857.53;;;9.88;39.60
47166;BME280;32930;51.112;13.762;2023-03-16T13:45:33;99857.59;;;9.94;37.27
47166;BME280;32930;51.112;13.762;2023-03-16T13:50:33;99870.88;;;9.66;37.30
47166;BME280;32930;51.112;13.762;2023-03-16T13:53:03;99869.41;;;9.82;37.74
47166;BME280;32930;51.112;13.762;2023-03-16T13:55:34;99863.34;;;9.75;38.58
47166;BME280;32930;51.112;13.762;2023-03-16T13:58:02;99854.84;;;9.79;38.51
47166;BME280;32930;51.112;13.762;2023-03-16T14:00:34;99851.63;;;9.95;39.43
47166;BME280;32930;51.112;13.762;2023-03-16T14:03:13;99852.53;;;9.99;39.49
47166;BME280;32930;51.112;13.762;2023-03-16T14:05:40;99847.28;;;9.88;38.25
47166;BME280;32930;51.112;13.762;2023-03-16T14:08:21;99845.41;;;9.75;38.28
47166;BME280;32930;51.112;13.762;2023-03-16T14:10:49;99835.16;;;9.75;37.44
47166;BME280;32930;51.112;13.762;2023-03-16T14:15:54;99836.78;;;9.70;38.52
47166;BME280;32930;51.112;13.762;2023-03-16T14:18:33;99836.47;;;9.47;37.83
47166;BME280;32930;51.112;13.762;2023-03-16T14:21:06;99825.63;;;9.66;38.66
47166;BME280;32930;51.112;13.762;2023-03-16T14:23:44;99818.81;;;9.67;39.65
47166;BME280;32930;51.112;13.762;2023-03-16T14:26:14;99822.31;;;9.73;39.37
47166;BME280;32930;51.112;13.762;2023-03-16T14:28:55;99825.03;;;9.84;39.25
47166;BME280;32930;51.112;13.762;2023-03-16T14:31:39;99821.53;;;9.79;40.75
47166;BME280;32930;51.112;13.762;2023-03-16T14:36:50;99834.84;;;9.52;40.66
47166;BME280;32930;51.112;13.762;2023-03-16T14:39:20;99829.78;;;9.57;40.44
47166;BME280;32930;51.112;13.762;2023-03-16T14:41:50;99829.63;;;9.46;40.42
47166;BME280;32930;51.112;13.762;2023-03-16T14:44:23;99822.94;;;9.57;40.46
47166;BME280;32930;51.112;13.762;2023-03-16T14:46:49;99823.94;;;9.65;41.58
47166;BME280;32930;51.112;13.762;2023-03-16T14:49:26;99822.22;;;9.67;41.51
47166;BME280;32930;51.112;13.762;2023-03-16T14:52:00;99822.16;;;9.61;41.53
47166;BME280;32930;51.112;13.762;2023-03-16T14:54:27;99820.44;;;9.59;41.41
47166;BME280;32930;51.112;13.762;2023-03-16T14:56:58;99828.56;;;9.30;41.08
47166;BME280;32930;51.112;13.762;2023-03-16T14:59:24;99820.31;;;9.51;42.45
47166;BME280;32930;51.112;13.762;2023-03-16T15:01:51;99827.19;;;9.54;42.13
47166;BME280;32930;51.112;13.762;2023-03-16T15:04:25;99812.34;;;9.33;43.01
47166;BME280;32930;51.112;13.762;2023-03-16T15:06:53;99807.41;;;9.45;43.23
47166;BME280;32930;51.112;13.762;2023-03-16T15:09:38;99815.94;;;9.45;42.88
47166;BME280;32930;51.112;13.762;2023-03-16T15:12:13;99808.00;;;9.24;42.23
47166;BME280;32930;51.112;13.762;2023-03-16T15:14:39;99804.00;;;9.43;41.79
47166;BME280;32930;51.112;13.762;2023-03-16T15:17:24;99798.88;;;9.44;42.48
47166;BME280;32930;51.112;13.762;2023-03-16T15:19:50;99804.09;;;9.50;41.92
47166;BME280;32930;51.112;13.762;2023-03-16T15:22:23;99801.44;;;9.44;42.49
47166;BME280;32930;51.112;13.762;2023-03-16T15:24:51;99799.72;;;9.43;43.07
47166;BME280;32930;51.112;13.762;2023-03-16T15:27:21;99795.59;;;9.53;43.11
47166;BME280;32930;51.112;13.762;2023-03-16T15:29:47;99798.47;;;9.17;43.14
47166;BME280;32930;51.112;13.762;2023-03-16T15:32:14;99803.50;;;9.11;42.31
47166;BME280;32930;51.112;13.762;2023-03-16T15:34:41;99803.50;;;9.09;43.13
47166;BME280;32930;51.112;13.762;2023-03-16T15:37:15;99801.88;;;9.14;42.22
47166;BME280;32930;51.112;13.762;2023-03-16T15:39:42;99795.09;;;9.18;41.56
47166;BME280;32930;51.112;13.762;2023-03-16T15:42:18;99798.53;;;9.20;41.66
47166;BME280;32930;51.112;13.762;2023-03-16T15:44:45;99807.25;;;9.33;42.00
47166;BME280;32930;51.112;13.762;2023-03-16T15:47:11;99799.38;;;9.20;42.88
47166;BME280;32930;51.112;13.762;2023-03-16T15:49:42;99791.88;;;9.31;41.94
47166;BME280;32930;51.112;13.762;2023-03-16T16:21:18;99789.97;;;9.82;52.07
47166;BME280;32930;51.112;13.762;2023-03-16T16:23:46;99786.25;;;10.28;50.75
47166;BME280;32930;51.112;13.762;2023-03-16T16:36:30;99807.84;;;8.62;42.10
47166;BME280;32930;51.112;13.762;2023-03-16T16:38:56;99814.44;;;8.50;42.45
47166;BME280;32930;51.112;13.762;2023-03-16T16:41:25;99805.97;;;8.51;43.14
47166;BME280;32930;51.112;13.762;2023-03-16T16:56:52;99798.69;;;8.29;44.16
47166;BME280;32930;51.112;13.762;2023-03-16T18:09:19;99770.16;;;7.62;48.65
47166;BME280;32930;51.112;13.762;2023-03-16T18:11:47;99769.41;;;7.68;48.50
47166;BME280;32930;51.112;13.762;2023-03-16T18:14:33;99771.06;;;7.65;49.65
47166;BME280;32930;51.112;13.762;2023-03-16T18:17:19;99774.19;;;7.52;48.63
47166;BME280;32930;51.112;13.762;2023-03-16T18:19:48;99757.38;;;7.62;48.12
47166;BME280;32930;51.112;13.762;2023-03-16T18:22:20;99756.53;;;7.61;48.14
47166;BME280;32930;51.112;13.762;2023-03-16T18:29:17;99760.59;;;7.53;47.72
47166;BME280;32930;51.112;13.762;2023-03-16T18:31:44;99758.09;;;8.44;63.21
47166;BME280;32930;51.112;13.762;2023-03-16T19:38:00;99721.91;;;7.33;50.15
47166;BME280;32930;51.112;13.762;2023-03-16T19:40:27;99721.69;;;7.23;50.46
47166;BME280;32930;51.112;13.762;2023-03-16T19:42:52;99718.53;;;6.95;50.38
47166;BME280;32930;51.112;13.762;2023-03-16T19:45:30;99715.53;;;7.13;51.04
47166;BME280;32930;51.112;13.762;2023-03-16T19:50:28;99710.38;;;7.11;50.58
47166;BME280;32930;51.112;13.762;2023-03-16T19:52:57;99705.88;;;7.00;50.85
